Date,TemperatureHighF,TemperatureAvgF,TemperatureLowF,DewpointHighF,DewpointAvgF,DewpointLowF,HumidityHigh,HumidityAvg,HumidityLow,PressureMaxIn,PressureMinIn,WindSpeedMaxMPH,WindSpeedAvgMPH,GustSpeedMaxMPH,PrecipitationSumIn
2013-1-1,32.2,25.7,15.9,31.0,20.7,13.0,95,82,65,30.16,30.03,9,3,0,0.00
2013-1-2,20.4,14.1,8.5,15.0,10.5,6.0,92,85,78,30.28,30.14,8,3,0,0.00
2013-1-3,29.4,21.7,11.1,25.0,15.7,5.0,88,78,63,30.27,30.18,19,6,0,0.01
2013-1-4,28.7,23.4,16.8,24.0,18.2,13.0,92,80,75,30.29,30.21,23,11,0,0.01
2013-1-5,35.7,28.1,19.3,31.0,23.6,17.0,90,83,72,30.34,30.11,14,5,0,0.00
2013-1-6,36.6,32.6,26.9,33.0,28.8,24.0,92,86,82,30.32,29.98,26,9,0,0.00
2013-1-7,34.4,28.6,22.8,28.0,24.7,21.0,95,85,74,30.45,30.23,11,4,0,0.00
2013-1-8,39.5,31.9,24.8,31.0,26.5,22.0,88,80,71,30.30,30.20,10,3,0,0.00
2013-1-9,42.8,39.2,34.2,38.0,34.1,29.0,88,82,76,30.51,30.13,17,7,0,0.00
2013-1-10,39.6,34.8,27.6,34.0,30.6,26.0,94,84,75,30.55,30.13,12,4,0,0.01
2013-1-11,59.3,50.8,39.0,54.0,47.5,33.0,96,88,75,30.12,29.81,17,6,0,0.69
2013-1-12,60.0,54.2,49.0,55.0,51.4,46.0,98,90,82,29.97,29.72,13,5,0,1.83
2013-1-13,60.8,43.1,32.5,60.0,42.0,30.0,98,95,89,30.09,29.65,24,8,0,0.52
2013-1-14,32.2,24.6,21.4,29.0,20.3,18.0,87,84,79,30.47,30.11,22,8,0,0.55
2013-1-15,29.6,25.9,21.1,24.0,20.2,18.0,88,79,65,30.45,30.14,13,5,0,0.00
2013-1-16,34.9,29.7,24.8,28.0,24.7,23.0,92,82,67,30.14,29.91,15,6,0,0.00
2013-1-17,39.8,32.2,22.5,31.0,25.7,14.0,91,77,56,30.38,30.04,20,8,0,0.01
2013-1-18,38.1,29.4,21.5,27.0,20.8,16.0,84,71,56,30.49,30.08,32,9,0,0.05
2013-1-19,50.5,43.0,37.1,37.0,30.3,26.0,72,61,53,30.08,29.75,26,14,0,0.20
2013-1-20,44.9,26.4,19.7,36.0,15.9,11.0,76,65,47,30.23,29.74,31,15,0,0.20
2013-1-21,20.1,16.4,9.5,12.0,5.7,-2.0,73,63,47,30.22,30.06,29,14,0,0.00
2013-1-22,13.2,9.5,5.2,2.0,-1.1,-3.0,71,62,51,30.37,30.21,21,11,0,0.00
2013-1-23,19.3,15.0,8.8,16.0,6.2,0.0,90,69,51,30.36,30.11,18,8,0,0.00
2013-1-24,20.9,16.2,9.4,16.0,8.0,5.0,89,71,52,30.62,30.12,21,5,0,0.00
2013-1-25,24.1,20.7,17.6,22.0,15.7,10.0,90,81,68,30.50,30.04,11,5,0,0.00
2013-1-26,27.4,23.9,17.1,22.0,18.3,12.0,92,80,60,30.47,30.10,12,4,0,0.00
2013-1-27,34.1,25.7,15.8,32.0,20.3,12.0,92,80,71,30.50,30.14,12,4,0,0.00
2013-1-28,49.9,44.7,34.2,48.0,43.4,32.0,98,95,90,30.14,29.93,18,8,0,0.02
2013-1-29,62.2,55.4,47.3,57.0,53.1,47.0,99,92,84,30.00,29.47,25,7,0,0.03
2013-1-30,64.8,51.3,32.8,59.0,48.2,27.0,97,89,80,29.44,29.15,30,13,0,0.01
2013-1-31,32.5,23.1,15.4,27.0,16.3,7.0,88,75,61,29.99,29.40,36,20,0,0.01
2013-2-1,15.5,12.7,8.0,10.0,5.8,3.0,79,74,68,30.36,30.00,23,13,0,0.00
2013-2-2,25.3,20.5,14.0,22.0,17.1,8.0,92,86,76,30.31,30.00,15,7,0,0.00
2013-2-3,20.6,17.3,13.8,15.0,13.3,11.0,91,84,77,30.09,29.95,17,6,0,0.00
2013-2-4,25.6,21.5,15.2,23.0,19.3,12.0,93,91,82,30.10,29.86,8,4,0,0.00
2013-2-5,31.1,25.1,18.7,29.0,22.6,17.0,95,90,76,30.00,29.84,12,3,0,0.02
2013-2-6,30.9,27.1,22.7,28.0,18.8,14.0,89,71,56,30.30,30.00,13,5,0,0.03
2013-2-7,41.2,32.7,24.4,35.0,26.8,18.0,86,79,70,30.27,29.76,15,6,0,0.05
2013-2-8,35.7,30.9,24.6,35.0,26.7,19.0,97,84,75,30.35,29.76,23,9,0,0.02
2013-2-9,34.2,25.8,17.0,25.0,20.3,15.0,90,80,65,30.47,30.28,9,3,0,0.01
2013-2-10,47.8,38.2,26.3,44.0,30.9,22.0,90,76,62,30.28,29.73,16,6,0,0.66
2013-2-11,48.3,39.2,32.6,45.0,32.9,24.0,93,78,69,29.96,29.63,31,15,0,0.69
2013-2-12,39.1,32.9,28.7,31.0,26.3,24.0,86,77,69,30.11,29.94,29,9,0,0.00
2013-2-13,36.0,30.0,26.6,30.0,25.7,23.0,89,84,73,29.95,29.77,8,3,0,0.00
2013-2-14,45.0,37.0,32.0,38.0,32.6,30.0,94,84,75,29.94,29.74,25,9,0,0.00
2013-2-15,34.7,30.2,24.0,30.0,23.7,17.0,87,77,62,30.16,29.93,13,6,0,0.00
2013-2-16,26.3,22.1,16.3,21.0,16.1,7.0,90,78,61,30.14,30.03,21,8,0,0.00
2013-2-17,26.8,20.0,13.8,14.0,11.3,8.0,88,70,46,30.25,30.11,15,6,0,0.00
2013-2-18,52.5,37.1,20.9,41.0,25.9,13.0,84,65,56,30.24,29.64,15,8,0,0.03
2013-2-19,45.2,27.1,16.6,42.0,21.9,9.0,93,81,70,30.07,29.51,32,18,0,0.11
2013-2-20,23.8,20.4,16.2,18.0,13.5,10.0,81,75,67,30.31,30.07,32,14,0,0.00
2013-2-21,26.6,23.5,22.1,20.0,17.3,16.0,82,77,71,30.40,30.21,20,8,0,0.00
2013-2-22,38.3,30.5,22.5,37.0,28.2,17.0,97,91,79,30.21,29.89,22,8,0,0.20
2013-2-23,35.0,30.8,27.6,32.0,25.0,22.0,94,79,70,29.98,29.92,19,10,0,0.01
2013-2-24,37.0,30.7,26.5,26.0,23.7,21.0,84,75,61,30.18,29.95,17,7,0,0.01
2013-2-25,41.8,32.5,22.9,29.0,25.8,21.0,94,77,58,30.23,30.03,15,4,0,0.00
2013-2-26,37.3,33.0,29.7,37.0,30.5,26.0,97,90,81,30.03,29.43,19,8,0,1.18
2013-2-27,37.4,35.2,31.8,37.0,34.1,31.0,97,95,90,29.63,29.43,17,8,0,0.36
2013-2-28,37.9,34.6,31.8,34.0,32.1,30.0,97,90,81,29.95,29.60,15,8,0,0.13
2013-3-1,33.9,29.8,26.4,31.0,25.3,20.0,93,83,77,30.11,29.95,14,8,0,0.13
2013-3-2,27.7,26.6,25.4,22.0,20.8,18.0,86,79,72,30.10,30.06,12,7,0,0.00
2013-3-3,31.2,26.7,23.4,20.0,17.8,15.0,83,70,54,30.09,30.04,17,7,0,0.00
2013-3-4,35.8,28.5,19.6,26.0,20.1,17.0,89,72,49,30.18,30.07,7,3,0,0.00
2013-3-5,34.6,31.6,28.9,29.0,26.8,25.0,96,83,75,30.10,29.68,22,12,0,0.00
2013-3-6,36.3,31.7,28.1,29.0,27.6,25.0,96,85,75,30.24,29.72,19,10,0,0.01
2013-3-7,38.2,34.4,31.4,31.0,28.7,26.0,90,80,65,30.40,30.22,14,5,0,0.01
2013-3-8,41.8,34.2,27.8,29.0,25.9,22.0,86,72,58,30.50,30.40,7,1,0,0.00
2013-3-9,48.3,39.0,29.5,38.0,32.2,26.0,90,77,59,30.42,30.01,12,4,0,0.00
2013-3-10,63.4,55.3,44.0,45.0,39.3,34.0,72,56,45,30.01,29.79,12,6,0,0.01
2013-3-11,57.6,49.5,36.6,50.0,43.8,33.0,93,81,61,29.79,29.49,27,12,0,0.35
2013-3-12,37.0,34.4,32.6,33.0,29.6,26.0,92,82,71,29.98,29.77,26,12,0,0.35
2013-3-13,33.5,29.2,25.7,30.0,23.2,19.0,92,78,68,30.28,29.95,26,14,0,0.00
2013-3-14,40.1,31.3,23.4,27.0,21.9,18.0,83,69,48,30.33,30.14,18,7,0,0.00
2013-3-15,46.6,38.4,30.6,41.0,33.8,26.0,96,84,71,30.14,29.79,14,5,0,0.18
2013-3-16,41.8,35.1,31.8,41.0,33.9,29.0,98,94,88,30.06,29.64,15,7,0,0.03
2013-3-17,32.5,30.3,28.2,30.0,24.4,21.0,90,79,73,30.23,30.06,21,9,0,0.04
2013-3-18,39.7,33.6,28.5,39.0,31.3,23.0,97,91,79,30.11,29.57,22,10,0,0.03
2013-3-19,35.6,30.4,25.0,32.0,20.7,16.0,88,68,56,30.01,29.74,33,18,0,0.03
2013-3-20,31.7,26.9,21.0,21.0,16.0,9.0,78,64,52,30.02,29.95,24,12,0,0.00
2013-3-21,31.4,24.2,18.2,21.0,17.1,11.0,86,74,62,30.02,29.95,20,10,0,0.00
2013-3-22,41.1,30.2,19.0,22.0,19.1,16.0,86,66,43,30.06,29.99,20,6,0,0.00
2013-3-23,42.0,32.6,24.0,27.0,23.8,20.0,88,71,53,30.10,30.00,11,3,0,0.00
2013-3-24,34.6,31.4,27.7,28.0,24.7,22.0,86,76,64,29.99,29.54,35,14,0,0.00
2013-3-25,34.5,31.9,29.8,33.0,30.6,28.0,96,95,85,29.92,29.46,22,10,0,0.05
2013-3-26,38.7,35.3,32.9,33.0,30.4,29.0,90,83,73,30.18,29.93,19,9,0,0.05
2013-3-27,41.9,37.1,32.9,32.0,29.5,25.0,90,75,60,30.27,30.18,22,11,0,0.00
2013-3-28,48.8,38.3,28.8,33.0,27.3,23.0,81,66,46,30.32,30.26,19,8,0,0.00
2013-3-29,51.3,40.4,28.5,30.0,26.6,23.0,90,61,34,30.32,30.21,16,4,0,0.00
2013-3-30,54.9,44.3,29.2,34.0,28.2,24.0,81,55,37,30.24,29.93,15,3,0,0.00
2013-3-31,58.9,48.9,42.0,45.0,38.5,33.0,90,69,44,29.92,29.67,22,7,0,0.01
2013-4-1,45.1,36.2,28.6,35.0,20.9,13.0,80,55,36,30.14,29.75,23,12,0,0.01
2013-4-2,42.8,32.5,23.4,22.0,16.1,11.0,77,53,29,30.28,30.14,28,8,0,0.00
2013-4-3,44.5,34.8,22.6,21.0,14.8,9.0,72,47,24,30.43,30.28,15,5,0,0.00
2013-4-4,56.9,40.9,27.0,21.0,17.8,12.0,69,44,20,30.37,29.97,11,4,0,0.00
2013-4-5,52.7,43.9,37.4,36.0,24.2,15.0,76,49,23,30.17,29.95,16,6,0,0.00
2013-4-6,59.3,47.1,33.2,33.0,24.8,13.0,74,45,29,30.23,29.80,16,8,0,0.00
2013-4-7,66.2,60.1,50.4,48.0,41.9,34.0,70,52,40,29.97,29.70,27,13,0,0.00
2013-4-8,72.1,57.5,40.2,58.0,47.3,36.0,84,70,56,29.98,29.75,31,10,0,0.01
2013-4-9,81.0,65.5,50.1,59.0,53.1,45.0,86,66,44,30.03,29.81,30,7,0,0.01
2013-4-10,69.5,52.0,45.0,58.0,49.1,44.0,96,90,66,29.90,29.79,20,7,0,3.03
2013-4-11,45.4,42.2,40.7,44.0,41.2,40.0,100,96,94,29.89,29.56,26,11,0,0.66
2013-4-12,43.3,41.2,39.7,41.0,37.3,32.0,97,86,73,29.86,29.52,21,11,0,0.05
2013-4-13,41.9,39.9,37.5,37.0,34.7,31.0,91,81,66,30.02,29.86,31,10,0,0.01
2013-4-14,60.3,47.4,37.9,49.0,40.5,33.0,87,77,64,30.11,29.88,15,5,0,0.01
2013-4-15,69.1,61.0,49.5,55.0,50.4,43.0,82,69,59,29.95,29.86,22,6,0,0.00
2013-4-16,61.1,55.1,50.5,55.0,51.8,47.0,95,88,77,30.18,29.86,13,4,0,0.63
2013-4-17,57.4,51.6,45.4,50.0,45.5,41.0,90,80,72,30.25,29.96,20,10,0,0.65
2013-4-18,80.3,63.5,46.4,65.0,57.5,40.0,96,82,56,30.00,29.56,37,9,0,0.18
2013-4-19,68.4,45.0,36.2,59.0,39.5,31.0,94,81,68,29.87,29.39,32,16,0,0.02
2013-4-20,44.1,38.2,33.7,33.0,27.0,21.0,87,66,44,30.45,29.87,22,11,0,0.02
2013-4-21,50.0,39.5,29.5,34.0,27.2,21.0,79,63,45,30.60,30.44,14,6,0,0.00
2013-4-22,66.1,49.2,31.8,42.0,33.7,29.0,89,60,30,30.43,30.14,11,4,0,0.00
2013-4-23,71.0,57.9,46.0,56.0,46.4,40.0,95,68,40,30.14,29.78,25,6,0,0.19
2013-4-24,59.6,44.9,37.2,55.0,40.7,29.0,95,86,58,30.19,29.70,24,10,0,1.34
2013-4-25,52.1,43.7,35.8,40.0,33.8,29.0,88,70,42,30.37,30.17,25,9,0,1.34
2013-4-26,61.1,48.3,33.8,38.0,34.5,32.0,91,62,37,30.46,30.34,9,2,0,0.00
2013-4-27,69.6,56.7,40.1,47.0,37.5,32.0,83,53,25,30.36,30.06,17,4,0,0.00
2013-4-28,61.1,57.4,52.7,59.0,54.0,48.0,96,89,64,30.06,29.79,11,5,0,0.61
2013-4-29,67.9,60.1,54.2,58.0,55.7,53.0,98,86,66,29.94,29.83,11,4,0,0.61
2013-4-30,76.9,65.0,53.5,58.0,55.0,52.0,94,72,47,30.03,29.93,13,5,0,0.00
2013-5-1,81.9,70.3,56.8,59.0,56.3,53.0,87,64,42,30.16,30.03,14,4,0,0.00
2013-5-2,75.2,68.4,59.7,58.0,54.8,53.0,78,63,48,30.19,30.07,13,5,0,0.00
2013-5-3,77.5,68.6,59.3,58.0,51.3,42.0,85,58,28,30.07,29.96,18,7,0,0.00
2013-5-4,70.8,63.8,55.4,47.0,44.7,37.0,73,51,34,30.03,29.95,21,8,0,0.00
2013-5-5,72.9,62.0,52.4,47.0,44.5,39.0,76,55,29,30.01,29.93,17,6,0,0.00
2013-5-6,71.8,63.5,54.9,54.0,48.1,41.0,71,58,48,29.99,29.91,11,4,0,0.00
2013-5-7,73.4,63.9,54.0,56.0,52.6,48.0,81,68,53,29.99,29.92,18,6,0,0.00
2013-5-8,77.4,65.6,55.4,59.0,52.5,50.0,85,65,39,29.97,29.90,13,3,0,0.03
2013-5-9,80.5,68.2,57.0,59.0,54.5,45.0,88,65,30,29.96,29.88,12,3,0,0.04
2013-5-10,69.5,64.0,52.5,64.0,59.2,49.0,95,85,72,29.89,29.72,20,7,0,0.02
2013-5-11,56.3,48.9,41.9,50.0,44.5,37.0,92,84,73,29.96,29.80,18,8,0,0.03
2013-5-12,50.3,44.0,38.2,36.0,32.0,28.0,87,64,45,30.12,29.96,25,10,0,0.01
2013-5-13,57.1,47.1,36.4,36.0,30.1,25.0,83,55,32,30.18,30.10,17,4,0,0.01
2013-5-14,83.0,64.5,46.9,59.0,44.8,31.0,65,50,39,30.11,29.71,23,6,0,0.00
2013-5-15,85.4,76.5,71.4,61.0,56.1,50.0,68,51,31,29.76,29.65,35,12,0,0.00
2013-5-16,83.1,71.8,59.6,55.0,47.1,38.0,71,44,21,29.92,29.73,6,2,0,0.00
2013-5-17,81.6,66.2,52.0,55.0,48.7,40.0,80,55,37,30.08,29.92,21,7,0,0.00
2013-5-18,77.7,65.4,55.6,60.0,50.4,39.0,72,59,41,30.08,29.97,14,4,0,0.00
2013-5-19,86.6,72.2,55.6,65.0,58.6,48.0,79,64,45,29.98,29.85,10,3,0,0.00
2013-5-20,89.2,78.9,70.3,71.0,66.7,64.0,88,68,43,29.90,29.78,19,6,0,0.00
2013-5-21,86.9,78.4,70.1,67.0,62.6,58.0,80,60,38,29.81,29.69,23,9,0,0.00
2013-5-22,80.0,71.6,63.8,66.0,62.5,59.0,88,74,50,29.73,29.64,24,7,0,0.14
2013-5-23,66.4,58.9,48.7,60.0,54.5,45.0,92,85,73,30.12,29.71,22,9,0,0.03
2013-5-24,61.6,52.0,43.5,45.0,39.4,35.0,92,65,39,30.32,30.12,16,7,0,0.03
2013-5-25,67.0,55.0,39.7,42.0,38.5,35.0,91,57,33,30.38,30.22,13,3,0,0.00
2013-5-26,69.5,58.7,44.2,42.0,34.9,28.0,75,45,22,30.32,30.18,12,4,0,0.00
2013-5-27,62.7,57.7,50.5,57.0,47.5,34.0,95,71,39,30.22,29.94,20,6,0,1.40
2013-5-28,81.8,71.7,58.5,70.0,64.8,57.0,96,80,61,29.95,29.83,21,6,0,0.09
2013-5-29,86.0,77.9,70.9,68.0,63.7,61.0,73,62,47,29.98,29.87,21,8,0,0.09
2013-5-30,89.8,79.3,70.2,70.0,65.6,61.0,83,64,46,30.05,29.91,18,5,0,0.01
2013-5-31,81.4,74.7,70.0,70.0,67.2,65.0,92,78,62,29.97,29.85,19,6,0,0.24
2013-6-1,77.6,70.3,62.8,69.0,65.4,61.0,97,85,66,29.94,29.69,27,5,0,0.10
2013-6-2,71.2,66.0,57.1,66.0,59.6,52.0,90,80,68,29.94,29.70,18,9,0,0.10
2013-6-3,67.0,58.1,51.7,52.0,46.3,37.0,87,67,34,30.07,29.94,10,4,0,0.00
2013-6-4,72.0,61.7,48.1,50.0,46.4,43.0,91,60,38,30.16,30.07,12,4,0,0.00
2013-6-5,76.4,64.5,52.6,52.0,48.3,45.0,80,57,41,30.12,29.91,18,6,0,0.00
2013-6-6,68.9,61.8,58.3,58.0,53.2,47.0,88,74,64,29.91,29.79,13,7,0,0.00
2013-6-7,66.4,59.4,53.7,56.0,53.5,52.0,94,81,66,29.88,29.82,13,4,0,0.00
2013-6-8,76.8,64.6,50.7,55.0,52.2,49.0,96,68,41,30.02,29.89,12,2,0,0.00
2013-6-9,84.5,73.0,63.7,67.0,59.5,53.0,93,65,36,30.04,29.87,10,4,0,0.04
2013-6-10,79.0,70.6,66.8,67.0,65.4,63.0,95,84,59,29.86,29.69,16,5,0,0.48
2013-6-11,83.8,72.9,64.1,66.0,64.4,62.0,95,77,52,29.90,29.76,15,7,0,0.48
2013-6-12,89.6,77.6,68.1,74.0,69.0,65.0,89,76,53,29.88,29.65,15,2,0,0.00
2013-6-13,76.9,70.4,65.3,66.0,59.9,53.0,96,72,44,29.88,29.46,19,9,0,1.61
2013-6-14,76.5,68.3,60.3,60.0,57.9,55.0,93,71,49,30.04,29.89,11,4,0,0.00
2013-6-15,80.0,69.3,60.2,65.0,60.4,57.0,89,75,49,30.08,29.91,10,3,0,0.00
2013-6-16,80.1,73.0,67.1,69.0,66.6,64.0,91,81,65,29.91,29.84,20,8,0,0.03
2013-6-17,85.8,75.4,67.1,70.0,64.7,55.0,97,73,35,29.91,29.83,12,4,0,0.03
2013-6-18,75.0,69.3,63.0,65.0,61.3,57.0,92,76,58,30.01,29.82,17,6,0,0.00
2013-6-19,77.2,66.0,53.6,57.0,50.3,47.0,83,59,35,30.12,30.01,11,5,0,0.00
2013-6-20,84.0,71.8,55.6,63.0,56.1,50.0,83,60,43,30.17,30.10,8,3,0,0.00
2013-6-21,87.9,78.0,66.4,63.0,59.6,54.0,77,56,33,30.17,30.02,18,3,0,0.00
2013-6-22,91.1,80.2,70.1,72.0,67.8,62.0,83,67,51,30.07,29.95,17,5,0,0.00
2013-6-23,89.6,78.6,70.8,70.0,67.7,63.0,90,71,46,30.07,29.95,16,4,0,0.00
2013-6-24,86.1,74.7,68.4,69.0,67.0,64.0,92,78,54,30.06,29.93,22,4,0,0.00
2013-6-25,90.4,79.2,69.2,74.0,69.1,63.0,91,73,51,29.96,29.78,22,8,0,0.01
2013-6-26,86.7,74.2,68.2,73.0,68.5,65.0,96,83,58,29.87,29.70,14,5,0,0.12
2013-6-27,84.5,76.2,70.7,71.0,70.1,69.0,97,82,60,29.73,29.62,21,6,0,0.14
2013-6-28,82.0,72.2,66.5,69.0,65.4,60.0,96,80,50,29.61,29.50,22,7,0,0.42
2013-6-29,75.8,68.2,61.3,66.0,63.3,60.0,97,85,67,29.66,29.51,9,2,0,0.29
2013-6-30,74.0,68.4,64.0,65.0,62.0,59.0,94,81,62,29.86,29.66,21,8,0,0.01
2013-7-1,67.6,64.5,60.9,64.0,60.0,54.0,95,85,79,29.98,29.85,22,8,0,1.91
2013-7-2,75.7,67.4,61.7,69.0,64.1,58.0,96,89,77,30.01,29.93,12,6,0,1.14
2013-7-3,82.5,73.6,65.3,70.0,66.4,64.0,99,80,57,30.06,29.99,11,3,0,1.14
2013-7-4,77.5,72.6,68.2,70.0,67.9,66.0,94,85,69,30.11,30.05,7,2,0,0.01
2013-7-5,82.8,75.0,68.7,70.0,68.8,68.0,98,82,61,30.09,30.02,11,2,0,0.15
2013-7-6,79.4,72.8,69.4,72.0,69.7,68.0,96,90,74,30.08,29.96,8,2,0,0.07
2013-7-7,81.1,70.4,66.4,70.0,67.1,60.0,96,89,62,30.05,29.98,14,4,0,0.11
2013-7-8,82.8,73.9,66.5,74.0,70.4,65.0,97,89,72,30.06,29.95,17,4,0,0.70
2013-7-9,87.4,78.5,72.7,78.0,73.6,70.0,96,85,69,29.98,29.88,18,5,0,0.01
2013-7-10,86.4,78.6,69.5,78.0,72.8,61.0,92,82,67,29.91,29.73,28,7,0,0.55
2013-7-11,77.4,70.2,63.6,62.0,58.9,54.0,86,69,48,30.02,29.90,17,5,0,0.55
2013-7-12,78.1,68.8,59.0,62.0,59.8,58.0,95,75,53,30.11,30.00,14,4,0,0.00
2013-7-13,83.4,72.8,61.8,71.0,65.0,60.0,95,78,57,30.15,30.07,14,5,0,0.00
2013-7-14,87.3,77.6,67.0,75.0,70.7,65.0,95,80,63,30.19,30.14,11,4,0,0.00
2013-7-15,84.2,77.0,73.8,75.0,73.0,71.0,93,87,70,30.26,30.19,8,2,0,0.00
2013-7-22,76.6,69.9,69.0,71.0,60.0,-99.9,94,80,79,29.77,0.00,7,-52,0,0.02
2013-7-23,84.1,73.6,66.0,72.0,66.8,59.0,98,81,58,29.80,29.66,22,7,0,0.03
2013-7-24,70.8,64.0,55.7,59.0,53.6,52.0,87,70,52,30.01,29.81,17,7,0,0.00
2013-7-25,75.4,65.4,54.2,58.0,55.0,53.0,95,71,48,30.09,30.01,10,2,0,0.00
2013-7-26,79.2,69.1,57.1,63.0,58.7,55.0,93,71,50,30.07,29.90,9,2,0,0.00
2013-7-27,77.6,67.7,58.7,68.0,61.6,54.0,95,82,48,29.91,29.74,29,6,0,0.13
2013-7-28,68.5,60.8,52.1,55.0,52.5,51.0,94,76,57,30.00,29.85,15,6,0,0.00
2013-7-29,72.3,63.2,53.7,59.0,54.9,50.0,90,75,58,30.16,30.00,16,5,0,0.00
2013-7-30,78.4,68.4,54.6,64.0,59.3,54.0,96,75,52,30.21,30.09,8,1,0,0.00
2013-7-31,75.9,70.2,66.7,68.0,65.6,63.0,98,85,70,30.09,29.89,9,2,0,0.30
2013-8-1,77.1,70.0,64.3,68.0,63.2,56.0,98,80,54,29.94,29.87,15,5,0,0.19
2013-8-2,79.3,65.4,56.3,69.0,61.4,54.0,96,87,67,30.00,29.82,14,4,0,2.20
2013-8-3,78.5,70.6,65.1,67.0,62.9,57.0,98,79,52,30.01,29.90,10,3,0,3.80
2013-8-4,74.3,66.2,57.3,59.0,56.5,54.0,91,72,50,30.14,30.01,12,4,0,0.00
2013-8-5,75.9,66.8,56.2,64.0,58.8,55.0,95,77,52,30.09,29.94,8,2,0,0.00
2013-8-6,80.7,72.0,64.9,68.0,63.7,59.0,89,76,63,29.95,29.87,11,3,0,0.00
2013-8-7,83.3,76.0,69.5,73.0,70.6,67.0,95,83,68,29.88,29.81,13,3,0,0.00
2013-8-8,74.6,72.0,69.3,71.0,68.9,67.0,94,90,84,29.94,29.86,11,4,0,0.00
2013-8-9,79.1,72.2,64.8,67.0,63.3,57.0,93,75,56,30.00,29.90,12,3,0,0.00
2013-8-10,82.0,71.7,65.8,69.0,65.4,63.0,94,81,57,30.08,29.99,12,3,0,0.00
2013-8-11,80.4,70.6,59.6,66.0,61.7,58.0,95,76,50,30.09,30.00,9,2,0,0.00
2013-8-12,84.0,73.0,63.0,71.0,65.8,61.0,94,79,58,30.05,29.82,10,2,0,0.03
2013-8-13,71.0,65.8,58.1,68.0,56.9,48.0,95,75,46,30.03,29.80,14,6,0,0.03
2013-8-14,69.5,58.4,50.0,53.0,49.8,47.0,91,75,49,30.16,30.04,11,4,0,0.00
2013-8-15,73.1,61.9,49.6,56.0,51.5,48.0,94,71,46,30.17,30.08,7,1,0,0.00
2013-8-16,74.7,65.7,56.8,59.0,55.7,51.0,90,72,45,30.16,30.11,10,2,0,0.00
2013-8-17,77.1,66.6,54.9,63.0,57.3,53.0,93,74,46,30.21,30.13,15,4,0,0.00
2013-8-18,79.4,68.9,56.6,65.0,58.9,56.0,97,73,48,30.18,30.08,8,2,0,0.00
2013-8-19,82.7,70.6,58.0,64.0,60.2,57.0,96,72,45,30.11,30.02,11,2,0,0.00
2013-8-20,85.9,74.3,61.9,67.0,63.7,59.0,93,72,48,30.13,30.05,9,1,0,0.00
2013-8-21,83.5,74.2,67.0,72.0,66.5,63.0,87,77,61,30.13,30.00,11,3,0,0.00
2013-8-22,78.6,72.1,66.3,72.0,68.1,63.0,95,87,77,30.04,29.96,19,5,0,0.01
2013-8-23,80.7,72.6,65.2,68.0,63.8,56.0,97,77,43,30.14,30.01,11,4,0,0.02
2013-8-24,81.8,69.6,56.9,61.0,57.2,54.0,93,69,39,30.27,30.15,18,4,0,0.00
2013-8-25,85.9,73.4,58.8,65.0,61.0,56.0,92,68,42,30.28,30.15,14,3,0,0.00
2013-8-26,86.5,75.2,63.6,72.0,66.1,59.0,86,74,57,30.19,29.99,17,5,0,0.00
2013-8-27,87.9,77.6,70.4,77.0,72.0,68.0,94,83,68,30.00,29.86,12,4,0,0.00
2013-8-28,86.3,79.7,73.5,76.0,72.2,70.0,89,78,68,29.95,29.80,13,6,0,0.00
2013-8-29,85.4,75.2,66.8,71.0,68.7,66.0,98,82,54,30.04,29.94,10,2,0,0.01
2013-8-30,88.0,76.5,64.8,71.0,68.1,64.0,98,77,51,29.96,29.73,18,3,0,0.00
2013-8-31,84.4,77.0,71.5,74.0,71.0,66.0,91,82,69,29.81,29.71,15,4,0,0.00
2013-9-1,77.8,73.1,68.3,72.0,69.1,66.0,94,87,78,29.77,29.72,10,3,0,0.00
2013-9-2,80.6,71.7,62.3,70.0,64.3,57.0,98,80,48,29.88,29.72,24,5,0,0.00
2013-9-3,75.1,64.3,57.4,57.0,54.7,51.0,88,72,50,30.02,29.88,11,4,0,0.00
2013-9-4,80.9,66.7,53.0,60.0,56.4,52.0,96,73,42,30.11,30.01,14,4,0,0.00
2013-9-5,76.2,66.4,58.5,60.0,50.7,37.0,90,62,25,30.21,30.07,12,4,0,0.00
2013-9-6,79.6,64.4,49.5,51.0,48.2,43.0,95,60,28,30.25,30.07,8,2,0,0.00
2013-9-7,84.7,71.5,57.5,66.0,57.9,48.0,74,63,47,30.07,29.89,18,4,0,0.00
2013-9-8,73.3,69.4,62.3,68.0,63.9,57.0,92,82,73,30.01,29.89,14,5,0,0.00
2013-9-9,91.3,73.8,59.6,70.0,63.3,55.0,90,72,46,30.01,29.87,13,4,0,0.00
2013-9-10,96.3,84.4,74.1,74.0,68.9,64.0,90,63,36,30.02,29.91,19,6,0,0.00
2013-9-11,94.2,82.1,71.8,72.0,67.3,62.0,86,64,35,30.05,29.90,22,5,0,0.00
2013-9-12,80.8,71.6,60.8,70.0,64.3,54.0,96,80,40,29.93,29.78,15,5,0,0.02
2013-9-13,61.4,55.9,48.9,56.0,46.9,42.0,89,73,51,30.11,29.92,15,7,0,0.02
2013-9-14,70.9,54.9,40.5,45.0,41.9,39.0,96,66,32,30.20,30.09,7,1,0,0.00
2013-9-15,73.9,59.6,50.0,56.0,48.5,45.0,95,70,37,30.12,29.98,12,3,0,0.50
2013-9-16,65.9,58.3,51.7,56.0,53.1,48.0,97,84,57,30.31,30.09,11,4,0,0.50
2013-9-17,71.2,57.3,44.0,51.0,45.7,42.0,95,69,35,30.36,30.18,11,3,0,0.00
2013-9-18,81.3,65.7,53.6,58.0,53.1,50.0,87,67,36,30.18,30.00,12,1,0,0.00
2013-9-19,80.7,70.3,64.6,69.0,65.4,55.0,96,85,64,30.02,29.90,15,3,0,0.11
2013-9-20,83.9,72.9,67.7,71.0,68.8,67.0,97,87,63,29.92,29.72,18,6,0,0.74
2013-9-21,69.6,63.6,53.7,67.0,55.4,45.0,97,77,42,29.85,29.67,18,8,0,1.27
2013-9-22,63.6,54.8,47.6,49.0,44.9,41.0,92,71,48,30.05,29.85,12,4,0,0.00
2013-9-23,62.4,52.7,42.7,50.0,45.1,41.0,96,77,56,30.14,30.04,11,3,0,0.00
2013-9-24,68.3,55.2,43.6,50.0,46.3,42.0,94,74,47,30.12,29.94,11,3,0,0.00
2013-9-25,73.1,59.2,48.8,56.0,51.3,48.0,96,78,46,29.97,29.88,11,4,0,0.00
2013-9-26,77.3,60.9,49.1,61.0,51.1,46.0,98,75,34,30.09,29.94,13,3,0,0.03
2013-9-27,76.7,61.0,48.3,58.0,51.1,47.0,98,73,36,30.19,30.10,11,4,0,0.00
2013-9-28,81.2,66.2,51.2,57.0,52.2,50.0,95,66,36,30.16,30.00,9,2,0,0.00
2013-9-29,65.5,62.9,60.3,63.0,58.8,53.0,97,87,64,30.01,29.93,8,2,0,0.96
2013-9-30,72.4,62.7,57.2,62.0,58.9,57.0,99,88,62,30.01,29.90,10,2,0,0.01
2013-10-1,75.6,65.7,57.6,64.0,60.2,57.0,98,84,58,30.02,29.95,14,4,0,0.04
2013-10-2,81.0,70.5,62.9,67.0,63.7,60.0,95,80,61,30.06,29.97,8,3,0,0.00
2013-10-3,77.6,70.5,65.4,71.0,66.6,64.0,96,88,72,30.01,29.91,11,2,0,0.73
2013-10-4,82.8,70.2,66.8,71.0,67.0,65.0,97,89,66,30.01,29.94,14,4,0,2.34
2013-10-5,78.7,70.4,65.4,71.0,67.8,65.0,98,91,76,30.00,29.82,6,2,0,0.44
2013-10-6,71.3,64.3,53.9,68.0,62.4,49.0,97,93,82,29.84,29.64,18,5,0,0.36
2013-10-7,59.8,51.9,45.2,49.0,45.2,42.0,90,78,60,30.13,29.74,22,8,0,0.36
2013-10-8,68.5,55.5,42.7,51.0,44.5,36.0,97,71,31,30.28,30.14,7,2,0,0.01
2013-10-9,71.1,57.8,45.4,50.0,45.9,42.0,94,68,35,30.27,30.16,13,3,0,0.01
2013-10-10,72.6,57.9,43.6,50.0,45.2,41.0,95,68,32,30.20,30.08,7,1,0,0.00
2013-10-11,75.5,60.2,47.2,57.0,48.1,-99.9,97,72,34,30.11,30.02,10,2,0,0.00
2013-10-12,79.0,65.0,50.1,62.0,55.3,49.0,97,74,41,30.07,29.99,7,1,0,0.01
2013-10-13,69.5,62.1,51.8,59.0,48.5,39.0,93,65,33,30.31,30.07,16,4,0,0.00
2013-10-14,65.9,54.4,43.6,52.0,45.3,41.0,91,73,46,30.36,30.22,14,5,0,0.00
2013-10-15,66.1,56.6,45.9,62.0,53.6,43.0,95,90,83,30.21,29.87,9,3,0,0.11
2013-10-16,63.6,58.2,45.5,62.0,51.8,43.0,96,80,56,29.93,29.82,19,7,0,0.11
2013-10-17,51.5,47.0,41.6,48.0,44.6,40.0,95,91,85,29.92,29.81,15,4,0,0.14
2013-10-18,64.9,51.5,41.1,49.0,43.5,40.0,94,76,49,29.95,29.86,19,6,0,0.14
2013-10-19,51.6,44.7,42.3,43.0,40.2,37.0,95,84,66,29.94,29.80,18,5,0,0.57
2013-10-20,62.2,51.5,41.7,44.0,40.1,37.0,83,67,44,29.95,29.88,17,6,0,0.57
2013-10-21,60.6,52.2,41.5,49.0,43.8,36.0,90,74,58,29.91,29.82,22,7,0,0.01
2013-10-22,49.4,40.1,32.3,35.0,29.7,23.0,92,70,35,29.99,29.89,18,6,0,0.06
2013-10-23,44.8,38.2,35.6,38.0,34.8,32.0,96,88,68,30.00,29.82,14,5,0,0.09
2013-10-24,43.7,38.5,34.4,35.0,32.7,31.0,89,80,64,30.23,29.99,20,7,0,0.01
2013-10-25,47.7,37.8,29.4,36.0,29.5,26.0,91,74,43,30.39,30.21,13,6,0,0.01
2013-10-26,50.7,43.2,37.3,39.0,32.2,27.0,76,65,57,30.20,29.86,28,10,0,0.00
2013-10-27,54.0,43.6,34.7,38.0,33.7,32.0,93,71,44,30.09,30.02,16,3,0,0.00
2013-10-28,58.1,44.8,33.6,40.0,35.8,31.0,90,72,47,30.34,30.07,8,2,0,0.00
2013-10-29,56.4,45.2,33.6,43.0,38.3,32.0,93,78,56,30.40,30.22,8,2,0,0.00
2013-10-30,63.2,53.4,40.9,60.0,48.9,39.0,97,85,73,30.22,29.93,9,2,0,0.00
2013-10-31,64.4,61.9,59.5,62.0,59.6,58.0,96,92,86,29.93,29.20,20,7,0,1.26
2013-11-1,59.6,50.4,46.8,57.0,46.1,43.0,92,85,77,29.69,29.23,27,10,0,1.26
2013-11-2,48.8,46.0,43.5,45.0,43.4,41.0,95,90,82,30.07,29.68,16,6,0,0.19
2013-11-3,48.2,42.7,37.4,42.0,37.6,35.0,94,82,66,30.40,30.07,11,4,0,0.43
2013-11-4,53.1,44.2,35.7,42.0,35.9,31.0,91,74,53,30.43,30.30,16,5,0,0.00
2013-11-5,58.8,52.8,47.6,51.0,45.2,42.0,87,75,66,30.37,30.17,11,4,0,0.00
2013-11-6,57.8,54.4,44.2,56.0,47.9,41.0,93,79,62,30.16,29.87,24,9,0,0.19
2013-11-7,46.6,42.4,37.8,42.0,34.2,28.0,91,74,50,30.20,30.02,22,11,0,0.19
2013-11-8,45.7,38.4,31.6,34.0,31.5,29.0,93,77,55,30.34,30.17,11,4,0,0.00
2013-11-9,59.5,49.5,40.1,42.0,37.0,31.0,78,63,52,30.19,29.89,28,10,0,0.00
2013-11-10,47.5,41.6,33.4,39.0,32.7,29.0,85,71,57,30.31,29.99,26,9,0,0.00
2013-11-11,50.3,39.9,28.7,40.0,33.8,28.0,96,80,58,30.32,30.04,17,8,0,0.26
2013-11-12,33.9,28.4,22.5,28.0,22.7,20.0,95,79,62,30.60,30.33,19,8,0,0.01
2013-11-13,36.9,29.1,21.6,25.0,21.4,18.0,92,74,54,30.59,30.30,20,8,0,0.01
2013-11-14,51.4,39.7,30.1,27.0,24.6,23.0,76,57,33,30.30,30.06,20,9,0,0.00
2013-11-15,49.9,43.5,39.0,36.0,29.7,25.0,77,59,47,30.10,30.04,16,4,0,0.00
2013-11-16,58.7,51.3,41.4,55.0,47.1,36.0,90,85,77,30.09,29.81,15,6,0,0.00
2013-11-17,66.4,59.4,48.5,60.0,54.6,41.0,94,84,69,29.81,29.32,35,14,0,0.54
2013-11-18,48.0,41.6,36.8,42.0,34.3,27.0,88,76,65,30.17,29.64,27,14,0,0.54
2013-11-19,40.4,36.0,30.9,28.0,26.9,25.0,83,70,57,30.39,30.18,15,4,0,0.00
2013-11-20,46.4,36.5,28.4,34.0,29.3,25.0,86,76,60,30.40,30.22,16,5,0,0.00
2013-11-21,47.6,45.4,42.6,47.0,40.7,34.0,96,84,63,30.30,30.17,11,3,0,0.39
2013-11-22,48.9,43.4,31.7,48.0,40.7,28.0,97,91,74,30.38,30.14,19,6,0,0.09
2013-11-23,32.2,27.3,18.9,28.0,19.9,8.0,92,75,54,30.58,30.33,22,10,0,0.09
2013-11-24,25.8,20.4,15.9,18.0,13.4,10.0,82,74,64,30.67,30.51,16,6,0,0.00
2013-11-25,33.5,27.1,19.2,22.0,17.5,15.0,84,68,53,30.51,30.16,17,7,0,0.00
2013-11-26,33.8,32.0,30.3,29.0,26.4,22.0,87,80,64,30.18,29.95,15,4,0,0.00
2013-11-27,30.8,26.9,22.6,25.0,17.5,11.0,90,69,47,30.25,29.93,23,11,0,0.00
2013-11-28,31.0,26.9,21.3,21.0,18.4,15.0,91,71,54,30.43,30.25,16,4,0,0.00
2013-11-29,35.5,27.5,19.6,24.0,20.0,16.0,86,74,57,30.65,30.44,5,2,0,0.00
2013-11-30,48.5,36.1,26.2,30.0,26.4,21.0,83,69,50,30.55,30.13,16,3,0,0.00
2013-12-1,47.1,39.1,33.7,36.0,31.7,28.0,87,75,66,30.13,29.98,12,4,0,0.00
2013-12-2,38.6,34.3,31.2,33.0,31.2,29.0,94,88,76,29.98,29.86,10,4,0,0.12
2013-12-3,50.1,42.1,34.4,46.0,39.7,33.0,95,91,84,29.87,29.79,12,4,0,0.12
2013-12-4,61.7,53.1,45.4,57.0,50.2,43.0,93,89,83,29.85,29.65,15,4,0,0.00
2013-12-5,62.3,42.5,28.3,57.0,37.8,26.0,95,83,75,30.16,29.65,23,11,0,0.00
2013-12-6,30.6,29.1,26.2,27.0,24.1,20.0,95,81,75,30.41,30.15,11,5,0,0.00
2013-12-7,26.5,23.6,18.8,20.0,15.5,13.0,79,71,61,30.63,30.41,11,4,0,0.00
2013-12-8,29.2,23.6,18.1,28.0,19.3,13.0,96,83,68,30.59,30.01,18,8,0,0.00
2013-12-9,31.3,26.7,20.9,30.0,23.0,15.0,96,86,75,30.21,29.95,21,11,0,0.00
2013-12-10,26.7,20.0,12.8,16.0,12.0,7.0,81,71,58,30.30,30.06,28,10,0,0.00
2013-12-11,23.6,18.3,8.6,21.0,13.6,5.0,90,82,70,30.51,30.30,15,6,0,0.00
2013-12-12,20.4,11.3,2.2,8.0,3.7,-2.0,86,72,57,30.53,30.30,17,8,0,0.00
2013-12-13,30.1,23.4,15.3,26.0,15.6,6.0,92,72,63,30.30,30.19,13,4,0,0.00
2013-12-14,30.6,27.3,22.2,30.0,26.2,21.0,97,95,93,30.21,29.77,14,8,0,0.00
2013-12-15,25.2,18.9,11.8,24.0,15.7,8.0,94,87,82,30.13,29.86,23,10,0,0.00
2013-12-16,21.2,16.8,11.5,20.0,13.4,8.0,94,86,79,30.21,30.02,10,4,0,0.00
2013-12-17,26.9,23.3,20.0,24.0,21.5,19.0,95,92,88,30.09,29.98,18,8,0,0.00
2013-12-18,33.9,23.4,18.1,23.0,17.8,15.0,90,80,63,30.23,29.97,19,7,0,0.00
2013-12-19,44.4,40.0,33.5,38.0,32.6,23.0,83,75,64,30.02,29.89,14,5,0,0.09
2013-12-20,56.8,48.9,43.0,55.0,46.4,38.0,95,91,79,29.88,29.72,19,6,0,0.08
2013-12-21,56.7,41.8,34.2,55.0,40.8,33.0,97,96,93,29.82,29.55,19,8,0,5.21
2013-12-22,44.1,38.6,34.8,43.0,36.8,33.0,98,93,85,30.01,29.43,23,10,0,0.02
2013-12-23,35.0,28.9,20.3,33.0,24.8,10.0,96,84,65,30.38,30.01,21,12,0,0.02
2013-12-24,20.0,14.5,8.3,13.0,9.5,4.0,87,81,71,30.59,30.37,23,9,0,0.00
2013-12-25,27.5,22.9,15.7,24.0,18.3,12.0,92,82,73,30.53,30.16,14,6,0,0.00
2013-12-26,33.5,28.6,24.9,28.0,23.1,18.0,94,80,63,30.34,30.11,21,9,0,0.00
2013-12-27,43.8,36.7,31.8,34.0,29.9,26.0,83,76,68,30.36,30.17,14,7,0,0.00
2013-12-28,50.3,41.5,36.4,39.0,34.1,32.0,84,75,65,30.17,29.95,16,7,0,0.00
2013-12-29,45.1,38.1,27.5,35.0,31.1,21.0,92,76,67,30.03,29.72,21,8,0,0.00
2013-12-30,27.2,23.6,20.1,21.0,15.8,13.0,80,72,61,30.26,30.03,20,7,0,0.00
2013-12-31,20.4,18.3,14.6,17.0,13.4,9.0,90,81,74,30.37,30.14,20,9,0,0.00
2014-1-1,22.3,19.7,18.4,19.0,16.9,16.0,94,88,86,30.36,30.14,20,9,0,0.00
2014-1-2,20.4,14.8,8.1,19.0,11.9,1.0,92,88,73,30.31,30.00,22,13,0,0.00